createdAt,value
2018-04-25T00:00:06.031Z,45
2018-04-25T00:15:04.625Z,45
2018-04-25T00:30:05.381Z,44
2018-04-25T00:45:05.141Z,44
2018-04-25T01:00:05.330Z,43
2018-04-25T01:15:05.319Z,43
2018-04-25T01:30:04.524Z,43
2018-04-25T01:45:05.198Z,44
2018-04-25T02:00:04.741Z,43
2018-04-25T02:15:05.376Z,44
2018-04-25T02:30:05.195Z,44
2018-04-25T02:45:04.932Z,43
2018-04-25T03:00:05.385Z,44
2018-04-25T03:15:04.905Z,43
2018-04-25T03:30:05.114Z,43
2018-04-25T03:45:05.649Z,43
2018-04-25T04:00:05.434Z,44
2018-04-25T04:15:04.919Z,45
2018-04-25T04:30:04.750Z,46
2018-04-25T04:45:05.428Z,55
2018-04-25T05:00:05.248Z,46
2018-04-25T05:15:04.723Z,48
2018-04-25T05:30:04.923Z,48
2018-04-25T05:45:04.400Z,49
2018-04-25T06:00:04.899Z,52
2018-04-25T06:15:05.334Z,53
2018-04-25T06:30:05.080Z,50
2018-04-25T06:45:05.304Z,50
2018-04-25T07:00:04.943Z,51
2018-04-25T07:15:04.882Z,50
2018-04-25T07:30:05.063Z,48
2018-04-25T07:45:05.015Z,48
2018-04-25T08:00:04.992Z,53
2018-04-25T08:15:04.451Z,51
2018-04-25T08:30:05.255Z,54
2018-04-25T08:45:05.187Z,52
2018-04-25T09:00:04.902Z,51
2018-04-25T09:15:04.371Z,51
2018-04-25T09:30:05.072Z,49
2018-04-25T09:45:04.652Z,50
2018-04-25T10:00:05.141Z,51
2018-04-25T10:15:04.667Z,54
2018-04-25T10:30:05.302Z,55
2018-04-25T10:45:05.292Z,52
2018-04-25T11:00:04.764Z,51
2018-04-25T11:15:05.234Z,55
2018-04-25T11:30:04.977Z,50
2018-04-25T11:45:04.925Z,53
2018-04-25T12:00:04.448Z,54
2018-04-25T12:15:04.902Z,72
2018-04-25T12:30:04.622Z,68
2018-04-25T12:45:06.141Z,58
2018-04-25T13:00:04.627Z,48
2018-04-25T13:15:04.873Z,49
2018-04-25T13:30:04.764Z,50
2018-04-25T13:45:05.293Z,50
2018-04-25T14:00:04.793Z,51
2018-04-25T14:15:04.826Z,48
2018-04-25T14:30:04.755Z,49
2018-04-25T14:45:04.383Z,51
2018-04-25T15:00:04.443Z,54
2018-04-25T15:15:04.919Z,52
2018-04-25T15:30:05.289Z,56
2018-04-25T15:45:10.298Z,52
2018-04-25T16:00:05.110Z,49
2018-04-25T16:15:04.700Z,51
2018-04-25T16:30:05.041Z,55
2018-04-25T16:45:05.118Z,50
2018-04-25T17:00:05.109Z,50
2018-04-25T17:15:04.573Z,55
2018-04-25T17:30:04.774Z,48
2018-04-25T17:45:06.537Z,48
2018-04-25T18:00:05.085Z,51
2018-04-25T18:15:05.091Z,49
2018-04-25T18:30:05.288Z,48
2018-04-25T18:45:05.265Z,48
2018-04-25T19:00:05.347Z,47
2018-04-25T19:15:05.302Z,48
2018-04-25T19:30:04.502Z,48
2018-04-25T19:45:05.067Z,46
2018-04-25T20:00:05.013Z,46
2018-04-25T20:15:05.085Z,47
2018-04-25T20:30:04.781Z,46
2018-04-25T20:45:04.758Z,45
2018-04-25T21:00:04.711Z,46
2018-04-25T21:15:05.231Z,47
2018-04-25T21:30:04.995Z,46
2018-04-25T21:45:04.987Z,47
2018-04-25T22:00:04.964Z,45
2018-04-25T22:15:04.942Z,45
2018-04-25T22:30:04.711Z,43
2018-04-25T22:45:05.152Z,44
2018-04-25T23:00:05.388Z,43
2018-04-25T23:15:04.419Z,44
2018-04-25T23:30:05.716Z,44
2018-04-25T23:45:05.488Z,45
